createdAt,value
2023-05-07T00:00:12.641Z,100783.45
2023-05-07T00:02:41.138Z,100789.70
2023-05-07T00:05:09.724Z,100787.19
2023-05-07T00:07:37.624Z,100790.13
2023-05-07T00:10:07.334Z,100791.30
2023-05-07T00:12:34.974Z,100789.80
2023-05-07T00:15:06.217Z,100789.95
2023-05-07T00:17:33.620Z,100792.86
2023-05-07T00:20:00.501Z,100792.58
2023-05-07T00:22:27.474Z,100800.09
2023-05-07T00:24:54.416Z,100800.38
2023-05-07T00:27:21.250Z,100796.84
2023-05-07T00:29:53.246Z,100793.50
2023-05-07T00:32:20.697Z,100796.48
2023-05-07T00:34:47.527Z,100799.80
2023-05-07T00:37:14.445Z,100797.46
2023-05-07T00:39:41.339Z,100792.81
2023-05-07T00:42:08.727Z,100796.23
2023-05-07T00:44:36.383Z,100797.21
2023-05-07T00:47:04.057Z,100792.08
2023-05-07T00:49:42.579Z,100795.27
2023-05-07T00:52:11.602Z,100796.73
2023-05-07T00:54:38.462Z,100796.83
2023-05-07T00:57:05.331Z,100795.52
2023-05-07T00:59:33.391Z,100793.89
2023-05-07T01:02:00.450Z,100795.89
2023-05-07T01:04:27.550Z,100797.79
2023-05-07T01:07:00.230Z,100799.48
2023-05-07T01:09:27.742Z,100805.21
2023-05-07T01:11:54.793Z,100811.17
2023-05-07T01:14:21.644Z,100810.95
2023-05-07T01:16:55.882Z,100804.41
2023-05-07T01:19:23.778Z,100801.39
2023-05-07T01:21:51.102Z,100804.49
2023-05-07T01:24:19.067Z,100808.89
2023-05-07T01:26:46.248Z,100805.74
2023-05-07T01:29:14.852Z,100803.67
2023-05-07T01:31:42.045Z,100804.30
2023-05-07T01:34:14.225Z,100794.64
2023-05-07T01:36:41.085Z,100792.87
2023-05-07T01:39:13.090Z,100787.34
2023-05-07T01:41:40.504Z,100785.09
2023-05-07T01:44:07.627Z,100784.64
2023-05-07T01:46:34.492Z,100785.41
2023-05-07T01:49:01.474Z,100785.95
2023-05-07T01:51:28.652Z,100787.67
2023-05-07T01:53:56.830Z,100787.11
2023-05-07T01:56:25.509Z,100787.38
2023-05-07T01:58:52.614Z,100787.77
2023-05-07T02:01:19.785Z,100782.70
2023-05-07T02:03:47.425Z,100783.46
2023-05-07T02:06:19.910Z,100785.96
2023-05-07T02:08:47.440Z,100783.32
2023-05-07T02:11:15.514Z,100785.88
2023-05-07T02:13:43.015Z,100789.20
2023-05-07T02:16:15.276Z,100789.38
2023-05-07T02:18:42.304Z,100790.88
2023-05-07T02:21:14.228Z,100789.30
2023-05-07T02:23:41.091Z,100789.09
2023-05-07T02:26:08.255Z,100790.85
2023-05-07T02:28:36.058Z,100796.00
2023-05-07T02:31:04.935Z,100796.73
2023-05-07T02:33:32.317Z,100790.54
2023-05-07T02:36:10.183Z,100787.94
2023-05-07T02:38:41.077Z,100789.70
2023-05-07T02:41:07.931Z,100786.95
2023-05-07T02:43:35.177Z,100794.32
2023-05-07T02:46:03.265Z,100796.42
2023-05-07T02:48:30.746Z,100801.33
2023-05-07T02:50:58.375Z,100799.65
2023-05-07T02:53:30.011Z,100804.13
2023-05-07T02:55:57.732Z,100805.75
2023-05-07T02:58:24.922Z,100807.52
2023-05-07T03:00:51.990Z,100808.73
2023-05-07T03:03:31.846Z,100805.93
2023-05-07T03:05:58.709Z,100807.60
2023-05-07T03:08:25.546Z,100809.48
2023-05-07T03:10:57.689Z,100809.27
2023-05-07T03:13:24.893Z,100811.05
2023-05-07T03:15:52.592Z,100819.11
2023-05-07T03:18:19.668Z,100817.27
2023-05-07T03:20:48.452Z,100817.82
2023-05-07T03:23:15.897Z,100824.96
2023-05-07T03:25:42.831Z,100818.10
2023-05-07T03:28:10.030Z,100821.78
2023-05-07T03:30:53.499Z,100820.77
2023-05-07T03:33:20.673Z,100824.08
2023-05-07T03:35:47.685Z,100819.67
2023-05-07T03:38:18.430Z,100820.08
2023-05-07T03:40:45.331Z,100819.55
2023-05-07T03:43:17.548Z,100820.42
2023-05-07T03:45:48.170Z,100817.13
2023-05-07T03:48:19.709Z,100821.70
2023-05-07T03:50:48.508Z,100818.91
2023-05-07T03:53:16.250Z,100816.23
2023-05-07T03:55:43.320Z,100818.14
2023-05-07T03:58:10.211Z,100812.71
2023-05-07T04:00:39.624Z,100814.62
2023-05-07T04:03:13.548Z,100823.84
2023-05-07T04:05:41.499Z,100826.46
2023-05-07T04:08:08.296Z,100826.65
2023-05-07T04:10:43.306Z,100818.59
2023-05-07T04:13:11.242Z,100823.41
2023-05-07T04:15:38.191Z,100822.98
2023-05-07T04:18:12.976Z,100825.83
2023-05-07T04:20:41.045Z,100822.05
2023-05-07T04:23:10.266Z,100824.94
2023-05-07T04:25:37.783Z,100819.85
2023-05-07T04:28:12.047Z,100820.16
2023-05-07T04:30:39.477Z,100820.17
2023-05-07T04:33:07.279Z,100819.95
2023-05-07T04:35:36.086Z,100818.77
2023-05-07T04:38:04.455Z,100815.02
2023-05-07T04:40:33.688Z,100813.56
2023-05-07T04:43:01.702Z,100816.27
2023-05-07T04:45:32.673Z,100812.06
2023-05-07T04:47:59.865Z,100810.54
2023-05-07T04:50:32.662Z,100812.45
2023-05-07T04:53:00.902Z,100813.45
2023-05-07T04:55:27.684Z,100811.80
2023-05-07T04:57:54.649Z,100811.99
2023-05-07T05:00:21.782Z,100807.95
2023-05-07T05:02:54.747Z,100799.53
2023-05-07T05:05:22.174Z,100800.45
2023-05-07T05:07:52.166Z,100797.02
2023-05-07T05:10:19.369Z,100798.48
2023-05-07T05:12:46.511Z,100795.78
2023-05-07T05:15:13.429Z,100799.84
2023-05-07T05:17:41.769Z,100799.65
2023-05-07T05:20:11.469Z,100802.00
2023-05-07T05:22:39.382Z,100807.23
2023-05-07T05:25:06.975Z,100806.77
2023-05-07T05:27:36.069Z,100804.36
2023-05-07T05:30:04.359Z,100800.30
2023-05-07T05:32:32.741Z,100802.59
2023-05-07T05:35:00.594Z,100808.74
2023-05-07T05:37:27.633Z,100806.20
2023-05-07T05:39:55.352Z,100806.58
2023-05-07T05:42:28.814Z,100807.58
2023-05-07T05:45:01.010Z,100809.45
2023-05-07T05:47:29.046Z,100809.05
2023-05-07T05:50:01.576Z,100803.33
2023-05-07T05:52:28.878Z,100802.58
2023-05-07T05:54:56.292Z,100799.79
2023-05-07T05:57:23.500Z,100794.98
2023-05-07T05:59:55.729Z,100800.60
2023-05-07T06:02:22.632Z,100801.81
2023-05-07T06:04:49.903Z,100793.00
2023-05-07T06:07:18.573Z,100791.52
2023-05-07T06:09:45.518Z,100789.61
2023-05-07T06:12:17.834Z,100792.91
2023-05-07T06:14:44.735Z,100792.06
2023-05-07T06:17:11.838Z,100796.48
2023-05-07T06:19:39.237Z,100792.36
2023-05-07T06:22:06.138Z,100795.52
2023-05-07T06:24:34.745Z,100789.27
2023-05-07T06:27:06.711Z,100786.79
2023-05-07T06:29:34.186Z,100780.67
2023-05-07T06:32:11.872Z,100779.36
2023-05-07T06:34:40.393Z,100778.98
2023-05-07T06:37:07.403Z,100787.23
2023-05-07T06:39:49.219Z,100782.25
2023-05-07T06:42:17.236Z,100781.80
2023-05-07T06:44:44.297Z,100783.36
2023-05-07T06:47:18.925Z,100784.27
2023-05-07T06:49:48.986Z,100791.35
2023-05-07T06:52:17.912Z,100789.95
2023-05-07T06:54:45.451Z,100791.49
2023-05-07T06:57:12.359Z,100786.93
2023-05-07T06:59:44.515Z,100792.33
2023-05-07T07:02:12.062Z,100795.64
2023-05-07T07:04:39.760Z,100801.12
2023-05-07T07:07:10.151Z,100801.80
2023-05-07T07:09:37.324Z,100799.01
2023-05-07T07:12:11.264Z,100792.20
2023-05-07T07:14:39.225Z,100791.36
2023-05-07T07:17:06.456Z,100794.30
2023-05-07T07:19:34.294Z,100794.30
2023-05-07T07:22:02.942Z,100788.11
2023-05-07T07:24:30.087Z,100786.38
2023-05-07T07:26:58.627Z,100788.73
2023-05-07T07:29:30.703Z,100780.04
2023-05-07T07:31:57.470Z,100775.91
2023-05-07T07:34:24.809Z,100777.48
2023-05-07T07:36:57.094Z,100775.96
2023-05-07T07:39:24.452Z,100773.08
2023-05-07T07:41:53.052Z,100769.04
2023-05-07T07:44:20.877Z,100766.28
2023-05-07T07:46:51.319Z,100757.81
2023-05-07T07:49:18.796Z,100756.59
2023-05-07T07:51:46.038Z,100754.21
2023-05-07T07:54:13.050Z,100758.20
2023-05-07T07:56:40.609Z,100761.08
2023-05-07T07:59:07.615Z,100762.36
2023-05-07T08:01:35.192Z,100760.19
2023-05-07T08:04:03.947Z,100762.40
2023-05-07T08:06:32.011Z,100758.38
2023-05-07T08:08:58.873Z,100756.65
2023-05-07T08:11:26.466Z,100752.11
2023-05-07T08:13:55.499Z,100750.30
2023-05-07T08:16:23.555Z,100743.45
2023-05-07T08:18:52.406Z,100738.66
2023-05-07T08:21:19.644Z,100750.59
2023-05-07T08:23:46.423Z,100751.24
2023-05-07T08:26:13.292Z,100752.14
2023-05-07T08:28:40.333Z,100745.77
2023-05-07T08:31:08.373Z,100746.89
2023-05-07T08:33:42.040Z,100742.73
2023-05-07T08:36:08.964Z,100738.25
2023-05-07T08:38:36.317Z,100734.64
2023-05-07T08:41:03.560Z,100729.30
2023-05-07T08:43:31.210Z,100732.30
2023-05-07T08:45:58.120Z,100731.71
2023-05-07T08:48:27.344Z,100735.01
2023-05-07T08:51:18.744Z,100735.90
2023-05-07T08:53:46.884Z,100732.77
2023-05-07T08:56:16.150Z,100726.86
2023-05-07T08:58:43.663Z,100725.37
2023-05-07T09:01:13.801Z,100720.14
2023-05-07T09:03:40.948Z,100716.27
2023-05-07T09:06:08.053Z,100711.45
2023-05-07T09:08:52.088Z,100710.59
2023-05-07T09:11:23.262Z,100706.46
2023-05-07T09:13:54.805Z,100704.09
2023-05-07T09:16:22.626Z,100708.97
2023-05-07T09:18:51.947Z,100700.12
2023-05-07T09:21:19.518Z,100698.05
2023-05-07T09:23:51.993Z,100695.38
2023-05-07T09:26:24.150Z,100690.23
2023-05-07T09:28:51.401Z,100681.80
2023-05-07T09:31:21.158Z,100682.06
2023-05-07T09:33:49.187Z,100683.96
2023-05-07T09:36:16.913Z,100677.55
2023-05-07T09:38:44.889Z,100676.59
2023-05-07T09:41:12.756Z,100671.96
2023-05-07T09:43:55.161Z,100673.29
2023-05-07T09:46:30.044Z,100673.09
2023-05-07T09:49:00.560Z,100674.09
2023-05-07T09:51:40.902Z,100672.41
2023-05-07T09:54:07.806Z,100673.00
2023-05-07T09:56:38.102Z,100675.80
2023-05-07T09:59:05.288Z,100677.11
2023-05-07T10:01:33.434Z,100675.87
2023-05-07T10:04:02.753Z,100670.47
2023-05-07T10:06:30.752Z,100674.71
2023-05-07T10:08:57.620Z,100674.05
2023-05-07T10:11:24.670Z,100664.25
2023-05-07T10:13:51.737Z,100662.05
2023-05-07T10:16:18.686Z,100659.50
2023-05-07T10:18:48.782Z,100655.95
2023-05-07T10:21:23.487Z,100654.80
2023-05-07T10:23:57.934Z,100662.17
2023-05-07T10:26:25.576Z,100662.19
2023-05-07T10:28:59.112Z,100660.19
2023-05-07T10:31:44.577Z,100657.38
2023-05-07T10:34:11.810Z,100658.71
2023-05-07T10:36:39.960Z,100654.35
2023-05-07T10:39:07.814Z,100655.70
2023-05-07T10:41:35.694Z,100660.39
2023-05-07T10:44:02.629Z,100658.92
2023-05-07T10:46:33.649Z,100657.05
2023-05-07T10:49:08.619Z,100661.54
2023-05-07T10:52:16.349Z,100652.37
2023-05-07T10:55:10.659Z,100658.11
2023-05-07T10:57:43.125Z,100662.04
2023-05-07T11:00:39.099Z,100652.33
2023-05-07T11:03:10.283Z,100652.16
2023-05-07T11:05:43.091Z,100648.21
2023-05-07T11:08:21.549Z,100644.34
2023-05-07T11:11:04.579Z,100640.86
2023-05-07T11:13:51.911Z,100644.20
2023-05-07T11:16:37.197Z,100640.69
2023-05-07T11:19:10.969Z,100632.64
2023-05-07T11:21:42.653Z,100624.02
2023-05-07T11:24:22.341Z,100625.29
2023-05-07T11:26:53.707Z,100619.85
2023-05-07T11:29:22.869Z,100613.23
2023-05-07T11:31:54.807Z,100607.60
2023-05-07T11:34:24.065Z,100603.05
2023-05-07T11:36:51.566Z,100600.36
2023-05-07T11:39:29.048Z,100597.14
2023-05-07T11:41:56.044Z,100592.98
2023-05-07T11:44:22.897Z,100589.71
2023-05-07T11:46:49.999Z,100582.17
2023-05-07T11:49:17.596Z,100580.63
2023-05-07T11:51:45.450Z,100577.95
2023-05-07T11:54:14.111Z,100577.84
2023-05-07T11:56:41.057Z,100578.08
2023-05-07T11:59:07.910Z,100575.13
2023-05-07T12:01:35.874Z,100572.38
2023-05-07T12:04:03.928Z,100570.33
2023-05-07T12:06:31.442Z,100564.61
2023-05-07T12:08:58.279Z,100567.83
2023-05-07T12:11:26.309Z,100567.38
2023-05-07T12:13:54.531Z,100573.23
2023-05-07T12:16:22.236Z,100570.64
2023-05-07T12:18:49.245Z,100565.69
2023-05-07T12:21:17.671Z,100562.58
2023-05-07T12:23:44.890Z,100569.76
2023-05-07T12:26:12.068Z,100570.56
2023-05-07T12:28:39.364Z,100565.51
2023-05-07T12:31:06.597Z,100565.81
2023-05-07T12:33:38.719Z,100566.13
2023-05-07T12:36:07.817Z,100568.15
2023-05-07T12:38:38.438Z,100565.03
2023-05-07T12:41:07.483Z,100559.02
2023-05-07T12:43:34.770Z,100552.75
2023-05-07T12:46:06.732Z,100551.89
2023-05-07T12:48:33.890Z,100542.14
2023-05-07T12:51:01.717Z,100542.20
2023-05-07T12:53:28.920Z,100543.41
2023-05-07T12:56:01.206Z,100538.36
2023-05-07T12:58:33.455Z,100539.02
2023-05-07T13:01:02.067Z,100541.67
2023-05-07T13:03:29.706Z,100540.14
2023-05-07T13:06:00.994Z,100536.37
2023-05-07T13:08:32.153Z,100539.58
2023-05-07T13:11:00.856Z,100539.47
2023-05-07T13:13:30.115Z,100539.30
2023-05-07T13:15:58.740Z,100541.73
2023-05-07T13:18:26.838Z,100542.49
2023-05-07T13:20:54.162Z,100541.40
2023-05-07T13:23:21.574Z,100540.92
2023-05-07T13:25:49.011Z,100543.55
2023-05-07T13:28:17.190Z,100534.41
2023-05-07T13:30:44.101Z,100543.23
2023-05-07T13:33:11.099Z,100537.96
2023-05-07T13:35:38.152Z,100533.66
2023-05-07T13:38:10.633Z,100536.02
2023-05-07T13:40:37.936Z,100527.84
2023-05-07T13:43:05.978Z,100535.88
2023-05-07T13:45:33.215Z,100535.88
2023-05-07T13:48:00.959Z,100536.92
2023-05-07T13:50:29.607Z,100534.08
2023-05-07T13:52:56.548Z,100533.46
2023-05-07T13:55:24.269Z,100534.00
2023-05-07T13:58:06.921Z,100537.09
2023-05-07T14:00:39.507Z,100539.39
2023-05-07T14:03:06.798Z,100542.11
2023-05-07T14:05:34.121Z,100541.45
2023-05-07T14:08:01.104Z,100545.98
2023-05-07T14:10:28.411Z,100546.59
2023-05-07T14:12:55.392Z,100548.41
2023-05-07T14:15:22.532Z,100548.39
2023-05-07T14:17:49.563Z,100548.55
2023-05-07T14:20:16.423Z,100547.19
2023-05-07T14:22:43.546Z,100552.05
2023-05-07T14:25:10.360Z,100552.43
2023-05-07T14:27:37.374Z,100550.91
2023-05-07T14:30:04.884Z,100552.27
2023-05-07T14:32:33.449Z,100549.59
2023-05-07T14:35:00.946Z,100553.77
2023-05-07T14:37:28.625Z,100548.98
2023-05-07T14:39:55.539Z,100553.45
2023-05-07T14:42:22.613Z,100553.73
2023-05-07T14:44:49.543Z,100557.92
2023-05-07T14:47:17.612Z,100557.95
2023-05-07T14:49:46.519Z,100557.34
2023-05-07T14:52:13.423Z,100565.20
2023-05-07T14:54:40.284Z,100566.16
2023-05-07T14:57:10.496Z,100563.15
2023-05-07T14:59:38.374Z,100557.95
2023-05-07T15:02:08.261Z,100561.66
2023-05-07T15:04:35.188Z,100559.89
2023-05-07T15:07:02.362Z,100561.42
2023-05-07T15:09:29.774Z,100559.52
2023-05-07T15:11:56.925Z,100565.99
2023-05-07T15:14:23.711Z,100563.16
2023-05-07T15:16:50.620Z,100562.63
2023-05-07T15:19:17.622Z,100566.04
2023-05-07T15:21:44.500Z,100565.97
2023-05-07T15:24:11.491Z,100565.98
2023-05-07T15:26:38.565Z,100564.77
2023-05-07T15:29:10.262Z,100562.95
2023-05-07T15:31:38.514Z,100568.42
2023-05-07T15:34:10.569Z,100568.24
2023-05-07T15:36:38.074Z,100567.99
2023-05-07T15:39:05.315Z,100572.38
2023-05-07T15:41:33.445Z,100576.55
2023-05-07T15:44:00.251Z,100568.79
2023-05-07T15:46:32.660Z,100571.27
2023-05-07T15:49:01.031Z,100575.77
2023-05-07T15:51:28.637Z,100582.52
2023-05-07T15:54:00.798Z,100581.03
2023-05-07T15:56:28.083Z,100577.76
2023-05-07T15:58:54.955Z,100579.27
2023-05-07T16:03:48.979Z,100581.42
2023-05-07T16:06:21.219Z,100584.16
2023-05-07T16:08:48.604Z,100590.80
2023-05-07T16:11:15.490Z,100594.98
2023-05-07T16:13:42.688Z,100598.27
2023-05-07T16:16:09.595Z,100592.39
2023-05-07T16:18:36.628Z,100594.77
2023-05-07T16:21:03.547Z,100599.20
2023-05-07T16:23:31.064Z,100606.23
2023-05-07T16:25:57.955Z,100612.34
2023-05-07T16:28:25.686Z,100615.91
2023-05-07T16:30:53.002Z,100616.48
2023-05-07T16:33:20.050Z,100615.58
2023-05-07T16:35:53.298Z,100618.73
2023-05-07T16:38:20.202Z,100618.56
2023-05-07T16:40:47.087Z,100621.91
2023-05-07T16:43:14.033Z,100624.46
2023-05-07T16:45:40.979Z,100624.21
2023-05-07T16:48:12.966Z,100625.30
2023-05-07T16:50:41.146Z,100625.96
2023-05-07T16:53:08.022Z,100630.08
2023-05-07T16:55:38.608Z,100636.92
2023-05-07T16:58:11.533Z,100639.01
2023-05-07T17:00:49.833Z,100638.33
2023-05-07T17:03:18.725Z,100638.60
2023-05-07T17:05:46.080Z,100646.67
2023-05-07T17:08:12.983Z,100646.82
2023-05-07T17:10:40.176Z,100650.23
2023-05-07T17:13:07.261Z,100650.84
2023-05-07T17:15:34.138Z,100651.59
2023-05-07T17:18:06.351Z,100655.44
2023-05-07T17:20:34.097Z,100654.08
2023-05-07T17:23:01.026Z,100650.77
2023-05-07T17:25:28.320Z,100652.06
2023-05-07T17:27:55.266Z,100654.44
2023-05-07T17:30:22.280Z,100655.29
2023-05-07T17:32:49.544Z,100658.11
2023-05-07T17:35:16.723Z,100656.41
2023-05-07T17:37:48.636Z,100658.51
2023-05-07T17:40:15.871Z,100661.02
2023-05-07T17:42:42.916Z,100660.79
2023-05-07T17:45:10.728Z,100659.74
2023-05-07T17:47:37.960Z,100663.73
2023-05-07T17:50:10.326Z,100670.70
2023-05-07T17:52:43.333Z,100668.48
2023-05-07T17:55:10.620Z,100674.34
2023-05-07T17:57:38.491Z,100674.16
2023-05-07T18:00:07.268Z,100676.95
2023-05-07T18:02:34.953Z,100677.94
2023-05-07T18:05:02.969Z,100679.66
2023-05-07T18:07:30.675Z,100680.91
2023-05-07T18:09:57.897Z,100680.84
2023-05-07T18:12:26.909Z,100681.63
2023-05-07T18:14:59.698Z,100683.39
2023-05-07T18:17:27.378Z,100687.45
2023-05-07T18:19:55.418Z,100686.23
2023-05-07T18:22:22.812Z,100691.13
2023-05-07T18:24:50.381Z,100694.85
2023-05-07T18:27:17.820Z,100691.94
2023-05-07T18:29:45.066Z,100693.58
2023-05-07T18:32:12.996Z,100688.05
2023-05-07T18:34:39.971Z,100696.20
2023-05-07T18:37:06.853Z,100688.08
2023-05-07T18:39:34.939Z,100687.58
2023-05-07T18:42:04.608Z,100688.32
2023-05-07T18:44:31.711Z,100683.20
2023-05-07T18:46:59.053Z,100684.35
2023-05-07T18:49:25.871Z,100679.67
2023-05-07T18:51:57.860Z,100678.16
2023-05-07T18:54:24.641Z,100678.08
2023-05-07T18:56:51.436Z,100678.95
2023-05-07T18:59:18.349Z,100678.54
2023-05-07T19:01:45.654Z,100679.56
2023-05-07T19:04:12.630Z,100680.82
2023-05-07T19:06:39.568Z,100679.69
2023-05-07T19:09:06.392Z,100679.59
2023-05-07T19:11:33.412Z,100683.27
2023-05-07T19:14:06.246Z,100684.84
2023-05-07T19:16:33.435Z,100685.05
2023-05-07T19:19:00.484Z,100682.05
2023-05-07T19:21:28.164Z,100682.95
2023-05-07T19:23:56.914Z,100678.75
2023-05-07T19:26:23.772Z,100679.42
2023-05-07T19:29:06.596Z,100680.14
2023-05-07T19:31:38.339Z,100681.46
2023-05-07T19:34:05.241Z,100681.02
2023-05-07T19:36:33.889Z,100684.06
2023-05-07T19:39:00.780Z,100683.83
2023-05-07T19:41:28.241Z,100687.77
2023-05-07T19:43:55.142Z,100685.20
2023-05-07T19:46:27.338Z,100690.49
2023-05-07T19:48:54.151Z,100690.45
2023-05-07T19:51:21.114Z,100691.55
2023-05-07T19:53:48.727Z,100689.13
2023-05-07T19:56:21.777Z,100693.05
2023-05-07T19:58:48.746Z,100690.15
2023-05-07T20:01:15.757Z,100692.58
2023-05-07T20:03:43.646Z,100694.17
2023-05-07T20:06:11.681Z,100691.07
2023-05-07T20:08:38.538Z,100692.34
2023-05-07T20:11:05.763Z,100691.49
2023-05-07T20:13:32.772Z,100698.73
2023-05-07T20:16:00.198Z,100696.34
2023-05-07T20:18:27.819Z,100701.63
2023-05-07T20:20:59.954Z,100703.48
2023-05-07T20:23:26.972Z,100703.16
2023-05-07T20:25:54.335Z,100704.80
2023-05-07T20:28:21.273Z,100704.23
2023-05-07T20:30:48.149Z,100704.08
2023-05-07T20:33:15.647Z,100712.70
2023-05-07T20:35:42.701Z,100709.29
2023-05-07T20:38:09.632Z,100713.13
2023-05-07T20:40:42.430Z,100717.18
2023-05-07T20:43:09.758Z,100716.01
2023-05-07T20:45:36.731Z,100715.35
2023-05-07T20:48:03.717Z,100713.45
2023-05-07T20:50:31.860Z,100713.05
2023-05-07T20:52:58.701Z,100716.74
2023-05-07T20:55:25.620Z,100718.86
2023-05-07T20:57:52.987Z,100719.89
2023-05-07T21:00:20.060Z,100723.21
2023-05-07T21:02:46.905Z,100725.16
2023-05-07T21:05:13.812Z,100727.73
2023-05-07T21:07:40.617Z,100726.20
2023-05-07T21:10:07.899Z,100728.75
2023-05-07T21:12:35.203Z,100727.55
2023-05-07T21:15:02.067Z,100729.81
2023-05-07T21:17:31.408Z,100730.68
2023-05-07T21:19:58.374Z,100736.20
2023-05-07T21:22:32.639Z,100738.02
2023-05-07T21:25:00.147Z,100740.70
2023-05-07T21:27:30.171Z,100746.25
2023-05-07T21:30:02.728Z,100750.07
2023-05-07T21:32:30.441Z,100750.41
2023-05-07T21:34:59.056Z,100752.05
2023-05-07T21:37:25.980Z,100750.55
2023-05-07T21:39:52.863Z,100750.48
2023-05-07T21:42:21.830Z,100752.66
2023-05-07T21:44:50.458Z,100759.91
2023-05-07T21:47:17.842Z,100763.21
2023-05-07T21:49:44.722Z,100764.17
2023-05-07T21:52:20.590Z,100767.58
2023-05-07T21:54:47.405Z,100766.77
2023-05-07T21:57:14.208Z,100767.67
2023-05-07T21:59:41.188Z,100769.40
2023-05-07T22:02:08.048Z,100775.92
2023-05-07T22:04:34.914Z,100774.88
2023-05-07T22:07:01.768Z,100776.39
2023-05-07T22:09:28.891Z,100777.16
2023-05-07T22:11:55.619Z,100776.25
2023-05-07T22:14:27.514Z,100774.93
2023-05-07T22:16:54.373Z,100773.52
2023-05-07T22:19:21.352Z,100772.62
2023-05-07T22:21:48.161Z,100772.61
2023-05-07T22:24:14.979Z,100774.25
2023-05-07T22:26:48.248Z,100775.65
2023-05-07T22:29:15.040Z,100772.25
2023-05-07T22:31:41.933Z,100773.64
2023-05-07T22:34:08.782Z,100771.90
2023-05-07T22:36:36.272Z,100774.92
2023-05-07T22:39:06.545Z,100773.10
2023-05-07T22:41:33.619Z,100774.81
2023-05-07T22:44:00.525Z,100772.84
2023-05-07T22:46:27.612Z,100776.59
2023-05-07T22:48:54.755Z,100773.46
2023-05-07T22:51:21.701Z,100773.10
2023-05-07T22:53:48.610Z,100770.44
2023-05-07T22:56:21.657Z,100769.65
2023-05-07T22:58:49.042Z,100773.66
2023-05-07T23:01:16.940Z,100774.80
2023-05-07T23:03:43.863Z,100772.82
2023-05-07T23:06:10.830Z,100776.90
2023-05-07T23:08:37.628Z,100775.90
2023-05-07T23:11:07.309Z,100768.72
2023-05-07T23:13:34.378Z,100769.39
2023-05-07T23:16:01.206Z,100773.15
2023-05-07T23:18:29.805Z,100773.55
2023-05-07T23:21:01.641Z,100776.77
2023-05-07T23:23:33.115Z,100778.30
2023-05-07T23:26:00.172Z,100777.56
2023-05-07T23:28:32.373Z,100774.47
2023-05-07T23:30:59.244Z,100774.00
2023-05-07T23:33:26.177Z,100775.45
2023-05-07T23:36:00.808Z,100777.55
2023-05-07T23:38:27.922Z,100773.44
2023-05-07T23:40:54.995Z,100773.70
2023-05-07T23:43:21.993Z,100773.23
2023-05-07T23:45:48.839Z,100774.98
2023-05-07T23:48:16.080Z,100774.54
2023-05-07T23:50:42.979Z,100776.63
2023-05-07T23:53:10.126Z,100779.00
2023-05-07T23:55:36.929Z,100776.85
2023-05-07T23:58:04.276Z,100772.58
